Latest Weather Observations for Newcastle Nobbys

IDN60801

Issued at 9:02 pm EDT Sunday 26 February 2017 (issued every 30 minutes, with the page automatically refreshed every 10 minutes)

About weather observations | Map of weather stations | Latest weather observations for NSW | Other Formats
Station Details ID: 061055 Name: NEWCASTLE NOBBYS SIGNAL STATION AWS Lat: -32.92 Lon: 151.80 Height: 33.0 m
Data from the previous 72 hours. | See also: Recent months at Newcastle Nobbys
Date/Time
EDT
Temp
°C
App
Temp
°C
Dew
Point
°C
Rel
Hum
%
Delta-T
°C
Wind Press
QNH
hPa
Press
MSL
hPa
Rain since
9am
mm
Dir  Spd
km/h
Gust
km/h
Spd
kts
Gust
kts
26/08:42pm 21.7 19.0 17.5 77 2.6 S 28 48 15 26 - - 1.6
26/08:30pm 21.5 18.3 17.3 77 2.6 S 30 33 16 18 - - 1.6
26/08:00pm 22.0 19.2 17.4 75 2.8 S 28 39 15 21 - - 1.6
26/07:30pm 21.4 19.1 17.6 79 2.3 S 26 32 14 17 - - 1.6
26/07:00pm 21.4 17.3 17.4 78 2.5 S 35 43 19 23 - - 1.6
26/06:30pm 22.0 18.9 17.4 75 2.8 S 30 37 16 20 - - 1.6
26/06:00pm 22.0 19.0 16.7 72 3.2 S 28 35 15 19 - - 1.6
26/05:30pm 22.1 19.5 16.8 72 3.2 S 26 32 14 17 - - 1.6
26/05:00pm 22.1 19.2 17.0 73 3.1 S 28 33 15 18 - - 1.6
26/04:30pm 22.4 19.1 16.0 67 3.9 S 28 33 15 18 - - 1.6
26/04:00pm 21.9 20.4 17.7 77 2.6 SSW 22 32 12 17 - - 1.6
26/03:30pm 22.2 21.0 17.6 75 2.8 SSW 20 30 11 16 - - 1.6
26/03:00pm 21.6 20.5 17.8 79 2.4 SSW 20 32 11 17 - - 1.6
26/02:30pm 21.6 20.8 18.0 80 2.2 S 19 28 10 15 - - 1.6
26/02:00pm 21.8 19.1 17.6 77 2.6 S 28 32 15 17 - - 1.6
26/01:30pm 21.4 19.5 17.6 79 2.3 SSE 24 44 13 24 - - 1.4
26/01:00pm 21.7 19.8 17.7 78 2.5 SSW 24 33 13 18 - - 1.4
26/12:30pm 20.4 19.3 17.8 85 1.6 SSW 20 39 11 21 - - 1.4
26/12:00pm 20.1 19.2 18.1 88 1.2 SSW 20 33 11 18 - - 1.0
26/11:30am 21.3 19.3 17.3 78 2.5 SSW 24 37 13 20 - - 0.2
26/11:00am 21.3 18.3 16.7 75 2.8 S 28 32 15 17 - - 0.0
26/10:30am 22.4 20.2 16.9 71 3.4 SSE 24 30 13 16 - - 0.0
26/10:00am 21.9 19.2 16.6 72 3.2 SSE 26 30 14 16 - - 0.0
26/09:30am 22.1 19.9 17.0 73 3.1 SSE 24 30 13 16 - - 0.0
26/09:00am 22.6 20.2 17.3 72 3.3 SSE 26 28 14 15 - - 19.2
26/08:30am 21.7 19.3 17.3 76 2.7 SSE 26 30 14 16 - - 19.2
26/08:00am 21.6 19.1 17.2 76 2.7 SSE 26 30 14 16 - - 19.2
26/07:30am 21.6 19.8 17.8 79 2.4 SSE 24 28 13 15 - - 19.2
26/07:00am 21.6 18.5 17.4 77 2.6 SSE 30 35 16 19 - - 19.2
26/06:30am 21.5 17.7 17.1 76 2.7 SE 33 37 18 20 - - 19.2
26/06:00am 21.5 18.3 17.3 77 2.6 SE 30 35 16 19 - - 19.2
26/05:30am 21.5 18.6 17.9 80 2.2 SE 30 35 16 19 - - 19.2
26/05:00am 21.2 17.9 18.0 82 2.0 SE 32 35 17 19 - - 19.2
26/04:30am 21.4 19.2 18.6 84 1.8 SE 28 32 15 17 - - 19.2
26/04:00am 21.5 19.0 18.1 81 2.1 SE 28 32 15 17 - - 19.2
26/03:30am 21.6 19.9 18.0 80 2.2 SE 24 30 13 16 - - 19.2
26/03:00am 21.7 19.9 17.9 79 2.4 SE 24 26 13 14 - - 19.2
26/02:30am 21.7 21.2 17.9 79 2.4 SE 17 20 9 11 - - 19.2
26/02:00am 21.8 21.0 18.0 79 2.4 SE 19 22 10 12 - - 19.2
26/01:30am 21.8 21.0 18.0 79 2.4 SE 19 20 10 11 - - 19.2
26/01:00am 21.8 20.5 18.2 80 2.2 SE 22 24 12 13 - - 19.2
26/12:30am 21.7 20.8 18.1 80 2.2 SE 20 22 11 12 - - 19.2
26/12:00am 21.8 20.5 18.2 80 2.2 SE 22 26 12 14 - - 19.2
 
Date/Time
EDT
Temp
°C
App
Temp
°C
Dew
Point
°C
Rel
Hum
%
Delta-T
°C
Wind Press
QNH
hPa
Press
MSL
hPa
Rain since
9am
mm
Dir  Spd
km/h
Gust
km/h
Spd
kts
Gust
kts
25/11:30pm 21.9 19.9 18.3 80 2.3 SE 26 28 14 15 - - 19.2
25/11:00pm 21.8 19.8 18.4 81 2.1 SE 26 30 14 16 - - 19.2
25/10:30pm 21.9 20.1 18.7 82 2.0 SE 26 30 14 16 - - 19.2
25/10:00pm 21.9 19.7 18.7 82 2.0 SE 28 32 15 17 - - 19.2
25/09:30pm 21.8 19.4 18.2 80 2.2 SE 28 33 15 18 - - 19.2
25/09:00pm 20.9 20.5 19.0 89 1.2 SE 19 32 10 17 - - 19.2
25/08:30pm 21.1 18.2 19.2 89 1.2 SE 33 37 18 20 - - 19.2
25/08:00pm 20.5 19.3 20.0 97 0.3 S 26 32 14 17 - - 19.2
25/07:30pm 20.7 19.6 20.2 97 0.3 SSE 26 33 14 18 - - 14.6
25/07:00pm 20.7 20.6 19.9 95 0.5 SE 20 32 11 17 - - 5.0
25/06:30pm 21.0 19.1 20.2 95 0.5 SE 30 37 16 20 - - 2.4
25/06:00pm 20.9 18.8 19.7 93 0.8 SSE 30 33 16 18 - - 1.0
25/05:30pm 21.0 20.4 19.8 93 0.8 S 22 33 12 18 - - 0.0
25/05:00pm 21.4 19.9 19.5 89 1.2 SSW 26 33 14 18 - - 0.0
25/04:30pm 21.4 20.5 19.1 87 1.5 SSW 22 30 12 16 - - 0.0
25/04:00pm 21.8 20.3 19.4 86 1.5 SSW 26 35 14 19 - - 0.0
25/03:30pm 22.3 22.0 19.5 84 1.8 SSW 20 32 11 17 - - 0.0
25/03:00pm 22.4 21.7 19.4 83 1.9 SSW 22 32 12 17 - - 0.0
25/02:30pm 22.1 20.6 19.5 85 1.7 SSW 26 35 14 19 - - 0.0
25/02:00pm 22.5 21.6 19.9 85 1.7 SSW 24 35 13 19 - - 0.0
25/01:30pm 21.2 18.9 19.3 89 1.2 SSW 30 37 16 20 - - 0.0
25/01:00pm 21.6 20.1 19.5 88 1.3 SSW 26 39 14 21 - - 0.0
25/12:30pm 21.6 20.8 19.3 87 1.5 SSW 22 33 12 18 - - 0.0
25/12:00pm 22.2 22.5 19.7 86 1.6 SSW 17 24 9 13 - - 0.0
25/11:30am 21.8 22.4 19.4 86 1.5 S 15 19 8 10 - - 0.0
25/11:00am 22.6 23.6 19.4 82 2.0 S 13 17 7 9 - - 0.0
25/10:30am 22.9 23.9 19.5 81 2.2 S 13 17 7 9 - - 0.0
25/10:00am 22.4 23.0 19.4 83 1.9 S 15 17 8 9 - - 0.0
25/09:30am 21.9 22.9 19.5 86 1.5 S 13 19 7 10 - - 0.0
25/09:00am 21.5 22.4 19.2 87 1.5 S 13 15 7 8 - - 0.0
25/08:30am 20.9 21.9 19.4 91 1.0 SSW 13 19 7 10 - - 0.0
25/08:00am 20.5 21.4 19.2 92 0.8 S 13 20 7 11 - - 0.0
25/07:30am 20.4 21.4 19.4 94 0.6 SSW 13 20 7 11 - - 0.0
25/07:00am 20.2 20.7 19.2 94 0.6 SSW 15 19 8 10 - - 0.0
25/06:30am 20.3 21.2 19.3 94 0.6 SSW 13 19 7 10 - - 0.0
25/06:00am 20.4 20.9 19.2 93 0.8 SSW 15 20 8 11 - - 0.0
25/05:30am 20.4 20.1 19.2 93 0.8 SSW 19 24 10 13 - - 0.0
25/05:00am 20.4 20.5 19.2 93 0.8 SSW 17 24 9 13 - - 0.0
25/04:30am 20.6 20.4 19.3 92 0.8 SSW 19 24 10 13 - - 0.0
25/04:00am 20.9 21.1 19.4 91 1.0 SSW 17 24 9 13 - - 0.0
25/03:30am 21.0 21.4 19.1 89 1.2 SSW 15 20 8 11 - - 0.0
25/03:00am 21.7 24.3 18.3 81 2.1 ESE 2 6 1 3 - - 0.0
25/02:30am 21.9 24.5 18.5 81 2.1 NNE 2 4 1 2 - - 0.0
25/02:00am 21.8 24.4 18.4 81 2.1 ESE 2 2 1 1 - - 0.0
25/01:30am 21.9 24.3 18.7 82 2.0 E 4 4 2 2 - - 0.0
25/01:00am 21.9 25.1 18.9 83 1.9 CALM 0 0 0 0 - - 0.0
25/12:30am 21.8 24.4 19.2 85 1.6 NNE 4 7 2 4 - - 0.0
25/12:00am 21.9 24.3 18.9 83 1.9 E 4 6 2 3 - - 0.0
 
Date/Time
EDT
Temp
°C
App
Temp
°C
Dew
Point
°C
Rel
Hum
%
Delta-T
°C
Wind Press
QNH
hPa
Press
MSL
hPa
Rain since
9am
mm
Dir  Spd
km/h
Gust
km/h
Spd
kts
Gust
kts
24/11:30pm 21.5 23.5 19.2 87 1.5 SSE 7 9 4 5 - - 0.0
24/11:00pm 21.6 23.7 19.0 85 1.6 SSE 6 7 3 4 - - 0.0
24/10:30pm 22.0 23.9 19.0 83 1.9 E 7 9 4 5 - - 0.0
24/10:00pm 22.0 23.2 19.0 83 1.9 E 11 15 6 8 - - 0.0
24/09:30pm 21.8 23.3 19.0 84 1.8 ESE 9 11 5 6 - - 0.0
24/09:00pm 21.8 23.1 19.2 85 1.6 ESE 11 13 6 7 - - 0.0
24/08:30pm 21.9 23.1 19.1 84 1.8 ESE 11 13 6 7 - - 0.0
24/08:00pm 21.9 23.4 18.9 83 1.9 ESE 9 11 5 6 - - 0.0
24/07:30pm 21.8 22.9 18.8 83 1.9 ESE 11 13 6 7 - - 0.0
24/07:00pm 22.5 23.3 19.1 81 2.2 ESE 13 17 7 9 - - 0.0
24/06:30pm 22.8 23.5 18.8 78 2.5 ESE 13 17 7 9 - - 0.0
24/06:00pm 22.6 23.0 19.0 80 2.3 ESE 15 17 8 9 - - 0.0
24/05:30pm 22.4 22.8 19.0 81 2.2 ESE 15 17 8 9 - - 0.0
24/05:00pm 22.5 22.1 19.3 82 2.0 ESE 20 22 11 12 - - 0.0
24/04:30pm 22.6 22.2 19.4 82 2.0 ESE 20 22 11 12 - - 0.0
24/04:00pm 22.8 22.7 19.6 82 2.0 ESE 19 22 10 12 - - 0.0
24/03:30pm 22.9 22.6 19.5 81 2.2 ESE 20 24 11 13 - - 0.0
24/03:00pm 23.0 22.7 19.6 81 2.2 ESE 20 22 11 12 - - 0.0
24/02:30pm 23.1 22.4 19.5 80 2.3 ESE 22 26 12 14 - - 0.0
24/02:00pm 23.0 22.3 19.4 80 2.3 ESE 22 24 12 13 - - 0.0
24/01:30pm 23.0 22.5 19.2 79 2.4 ESE 20 24 11 13 - - 0.0
24/01:00pm 23.1 22.6 19.1 78 2.5 ESE 20 24 11 13 - - 0.0
24/12:30pm 23.4 22.3 18.7 75 3.0 ESE 22 32 12 17 - - 0.0
24/12:00pm 22.6 22.0 18.8 79 2.4 ESE 20 24 11 13 - - 0.0
24/11:30am 22.8 23.5 18.8 78 2.5 SSE 13 15 7 8 - - 0.0
24/11:00am 22.4 23.2 19.0 81 2.2 SE 13 20 7 11 - - 0.0
24/10:30am 21.9 22.8 18.5 81 2.1 S 11 15 6 8 - - 0.0
24/10:00am 22.2 23.5 18.4 79 2.4 SSE 9 11 5 6 - - 0.0
24/09:30am 21.8 23.3 18.0 79 2.4 SSE 7 9 4 5 - - 0.0
24/09:00am 21.2 22.4 18.2 83 1.9 S 9 9 5 5 - - 0.0
24/08:30am 21.4 23.5 18.0 81 2.1 SSE 4 6 2 3 - - 0.0
24/08:00am 20.9 23.2 18.5 86 1.5 SE 4 4 2 2 - - 0.0
24/07:30am 20.3 22.2 18.6 90 1.1 ESE 6 6 3 3 - - 0.0
24/07:00am 19.8 21.7 18.6 93 0.7 E 6 7 3 4 - - 0.0
24/06:30am 19.7 21.6 18.5 93 0.7 E 6 7 3 4 - - 0.0
24/06:00am 19.7 21.5 18.4 92 0.8 ESE 6 6 3 3 - - 0.0
24/05:30am 19.6 21.2 18.3 92 0.8 ESE 7 7 4 4 - - 0.0
24/05:00am 19.7 21.3 18.2 91 0.9 ENE 7 9 4 5 - - 0.0
24/04:30am 19.8 21.0 18.3 91 0.9 ENE 9 11 5 6 - - 0.0
24/04:00am 20.0 21.6 18.3 90 1.1 E 7 11 4 6 - - 0.0
24/03:30am 20.2 21.9 18.5 90 1.1 ESE 7 9 4 5 - - 0.0
24/03:00am 20.4 22.2 18.3 88 1.3 SE 6 7 3 4 - - 0.0
24/02:30am 20.6 22.4 18.4 87 1.4 E 6 7 3 4 - - 0.0
24/02:00am 20.7 22.0 18.5 87 1.4 ENE 9 11 5 6 - - 0.0
24/01:30am 20.7 22.0 18.5 87 1.4 ENE 9 13 5 7 - - 0.0
24/01:00am 20.7 21.9 18.3 86 1.5 ENE 9 13 5 7 - - 0.0
24/12:30am 20.9 22.0 18.1 84 1.7 ENE 9 15 5 8 - - 0.0
24/12:00am 21.1 21.5 18.1 83 1.9 ENE 13 17 7 9 - - 0.0
 
Date/Time
EDT
Temp
°C
App
Temp
°C
Dew
Point
°C
Rel
Hum
%
Delta-T
°C
Wind Press
QNH
hPa
Press
MSL
hPa
Rain since
9am
mm
Dir  Spd
km/h
Gust
km/h
Spd
kts
Gust
kts
23/11:30pm 21.1 21.0 17.9 82 2.0 ENE 15 20 8 11 - - 0.0
23/11:00pm 21.2 21.5 18.0 82 2.0 NE 13 19 7 10 - - 0.0
23/10:30pm 21.3 21.2 17.9 81 2.1 NE 15 20 8 11 - - 0.0
23/10:00pm 21.6 21.9 17.8 79 2.4 NE 13 19 7 10 - - 0.0
23/09:30pm 21.6 22.2 17.8 79 2.4 NE 11 17 6 9 - - 0.0

Other Formats:

Comma delimited format used in spreadsheet applications
http://www.bom.gov.au/fwo/IDN60801/IDN60801.94774.axf

JavaScript Object Notation format (JSON) in row-major order
http://www.bom.gov.au/fwo/IDN60801/IDN60801.94774.json